createdAt,value
2017-06-05T00:01:22.031Z,93.20
2017-06-05T00:03:49.487Z,93.10
2017-06-05T00:06:16.932Z,92.90
2017-06-05T00:08:44.376Z,92.90
2017-06-05T00:11:11.812Z,92.80
2017-06-05T00:13:40.028Z,92.60
2017-06-05T00:16:07.472Z,92.60
2017-06-05T00:18:34.921Z,92.50
2017-06-05T00:21:02.350Z,92.40
2017-06-05T00:23:30.572Z,92.40
2017-06-05T00:25:58.015Z,92.10
2017-06-05T00:28:25.464Z,92.10
2017-06-05T00:30:52.901Z,92.50
2017-06-05T00:33:21.111Z,92.90
2017-06-05T00:35:48.563Z,92.90
2017-06-05T00:38:15.999Z,93.10
2017-06-05T00:40:43.491Z,93.10
2017-06-05T00:43:10.941Z,92.80
2017-06-05T00:45:38.397Z,92.20
2017-06-05T00:48:05.849Z,92.00
2017-06-05T00:50:33.307Z,92.40
2017-06-05T00:53:00.757Z,92.60
2017-06-05T00:55:28.200Z,93.10
2017-06-05T00:57:55.639Z,93.20
2017-06-05T01:00:23.086Z,93.40
2017-06-05T01:02:51.292Z,93.30
2017-06-05T01:05:18.735Z,93.30
2017-06-05T01:07:46.233Z,93.30
2017-06-05T01:10:13.679Z,93.50
2017-06-05T01:12:41.127Z,93.50
2017-06-05T01:15:08.573Z,93.50
2017-06-05T01:17:36.028Z,93.90
2017-06-05T01:20:03.468Z,94.10
2017-06-05T01:22:30.917Z,93.90
2017-06-05T01:24:59.127Z,93.70
2017-06-05T01:27:26.584Z,93.60
2017-06-05T01:29:54.024Z,93.50
2017-06-05T01:32:21.467Z,93.50
2017-06-05T01:34:48.908Z,93.80
2017-06-05T01:37:17.125Z,93.70
2017-06-05T01:39:44.566Z,93.70
2017-06-05T01:42:12.012Z,93.50
2017-06-05T01:44:39.451Z,93.60
2017-06-05T01:47:06.900Z,93.30
2017-06-05T01:49:34.339Z,93.40
2017-06-05T01:52:01.809Z,93.30
2017-06-05T01:54:29.241Z,93.30
2017-06-05T01:56:56.688Z,93.50
2017-06-05T01:59:24.137Z,93.60
2017-06-05T02:01:51.580Z,93.70
2017-06-05T02:04:19.018Z,93.70
2017-06-05T02:06:46.462Z,93.90
2017-06-05T02:09:13.907Z,94.00
2017-06-05T02:11:41.338Z,94.10
2017-06-05T02:14:08.791Z,93.90
2017-06-05T02:16:36.235Z,93.90
2017-06-05T02:19:03.679Z,93.80
2017-06-05T02:21:31.120Z,93.80
2017-06-05T02:23:58.571Z,93.70
2017-06-05T02:26:26.007Z,93.60
2017-06-05T02:28:54.220Z,93.80
2017-06-05T02:33:55.671Z,93.50
2017-06-05T02:36:23.111Z,93.50
2017-06-05T02:38:50.559Z,93.40
2017-06-05T02:41:18.773Z,93.60
2017-06-05T02:43:46.228Z,93.50
2017-06-05T02:46:13.671Z,93.60
2017-06-05T02:48:41.120Z,93.60
2017-06-05T02:51:08.571Z,93.60
2017-06-05T02:53:36.011Z,93.60
2017-06-05T02:56:04.224Z,93.80
2017-06-05T02:58:31.667Z,93.80
2017-06-05T03:00:59.124Z,93.70
2017-06-05T03:03:26.564Z,93.60
2017-06-05T03:05:54.007Z,93.50
2017-06-05T03:08:22.225Z,93.30
2017-06-05T03:10:49.679Z,93.30
2017-06-05T03:13:17.124Z,93.10
2017-06-05T03:15:44.571Z,93.10
2017-06-05T03:18:12.020Z,93.50
2017-06-05T03:20:39.463Z,93.90
2017-06-05T03:23:07.679Z,93.70
2017-06-05T03:25:35.132Z,93.70
2017-06-05T03:28:02.576Z,93.40
2017-06-05T03:30:30.028Z,93.20
2017-06-05T03:32:57.463Z,93.20
2017-06-05T03:35:25.679Z,93.60
2017-06-05T03:37:53.120Z,93.60
2017-06-05T03:40:20.588Z,93.40
2017-06-05T03:42:48.030Z,93.50
2017-06-05T03:45:15.481Z,93.00
2017-06-05T03:47:42.920Z,92.80
2017-06-05T03:50:11.131Z,93.00
2017-06-05T03:52:38.576Z,93.00
2017-06-05T03:55:06.016Z,92.90
2017-06-05T03:57:33.459Z,92.90
2017-06-05T04:00:01.676Z,93.30
2017-06-05T04:02:29.126Z,93.20
2017-06-05T04:04:56.578Z,93.30
2017-06-05T04:07:24.028Z,93.20
2017-06-05T04:09:51.468Z,93.10
2017-06-05T04:12:18.916Z,93.20
2017-06-05T04:14:47.128Z,92.80
2017-06-05T04:17:14.584Z,92.80
2017-06-05T04:19:42.033Z,92.80
2017-06-05T04:22:09.471Z,92.80
2017-06-05T04:24:36.912Z,92.70
2017-06-05T04:27:05.124Z,92.70
2017-06-05T04:29:32.582Z,92.60
2017-06-05T04:32:00.039Z,92.70
2017-06-05T04:34:27.479Z,92.90
2017-06-05T04:36:54.924Z,92.50
2017-06-05T04:39:22.367Z,92.50
2017-06-05T04:41:50.592Z,91.40
2017-06-05T04:44:18.031Z,91.30
2017-06-05T04:46:45.490Z,91.80
2017-06-05T04:49:12.941Z,91.60
2017-06-05T04:51:40.383Z,91.80
2017-06-05T04:54:07.823Z,91.70
2017-06-05T04:56:36.060Z,91.50
2017-06-05T04:59:03.491Z,91.50
2017-06-05T05:01:30.943Z,91.30
2017-06-05T05:03:58.400Z,90.80
2017-06-05T05:06:25.844Z,91.00
2017-06-05T05:08:53.292Z,90.80
2017-06-05T05:11:20.732Z,90.80
2017-06-05T05:13:48.943Z,91.00
2017-06-05T05:16:16.386Z,91.00
2017-06-05T05:18:43.827Z,91.60
2017-06-05T05:21:11.268Z,91.10
2017-06-05T05:23:39.482Z,90.80
2017-06-05T05:26:06.931Z,90.80
2017-06-05T05:28:34.371Z,90.50
2017-06-05T05:31:01.811Z,90.30
2017-06-05T05:33:30.027Z,89.60
2017-06-05T05:35:57.473Z,89.60
2017-06-05T05:38:24.924Z,88.40
2017-06-05T05:40:52.379Z,87.90
2017-06-05T05:43:19.839Z,87.80
2017-06-05T05:45:47.286Z,87.10
2017-06-05T05:48:14.767Z,86.90
2017-06-05T05:50:42.216Z,85.80
2017-06-05T05:53:09.660Z,87.70
2017-06-05T05:55:37.111Z,87.30
2017-06-05T05:58:04.554Z,86.70
2017-06-05T06:00:32.003Z,86.80
2017-06-05T06:02:59.447Z,86.70
2017-06-05T06:05:27.665Z,87.50
2017-06-05T06:07:55.118Z,87.50
2017-06-05T06:10:22.567Z,90.00
2017-06-05T06:12:50.007Z,88.00
2017-06-05T06:15:17.459Z,85.60
2017-06-05T06:17:44.900Z,86.30
2017-06-05T06:20:13.112Z,85.70
2017-06-05T06:22:40.557Z,85.60
2017-06-05T06:25:08.003Z,86.30
2017-06-05T06:27:35.443Z,86.40
2017-06-05T06:30:03.655Z,87.80
2017-06-05T06:32:31.095Z,87.80
2017-06-05T06:34:58.547Z,86.60
2017-06-05T06:37:25.991Z,86.10
2017-06-05T06:39:53.440Z,86.80
2017-06-05T06:42:21.652Z,87.30
2017-06-05T06:44:49.098Z,87.30
2017-06-05T06:47:16.536Z,86.60
2017-06-05T06:49:43.971Z,88.00
2017-06-05T06:52:12.194Z,87.00
2017-06-05T06:54:39.632Z,87.00
2017-06-05T06:57:07.075Z,86.40
2017-06-05T06:59:34.519Z,87.00
2017-06-05T07:02:02.732Z,84.30
2017-06-05T07:04:30.172Z,84.30
2017-06-05T07:06:57.619Z,82.60
2017-06-05T07:09:25.058Z,83.20
2017-06-05T07:11:52.511Z,83.00
2017-06-05T07:14:19.956Z,82.40
2017-06-05T07:16:48.171Z,80.60
2017-06-05T07:19:15.627Z,80.50
2017-06-05T07:21:43.097Z,79.40
2017-06-05T07:24:10.548Z,78.10
2017-06-05T07:26:37.992Z,76.50
2017-06-05T07:29:05.449Z,77.00
2017-06-05T07:31:32.890Z,76.30
2017-06-05T07:34:00.335Z,77.30
2017-06-05T07:36:27.784Z,77.30
2017-06-05T07:38:56.032Z,79.00
2017-06-05T07:41:23.451Z,79.00
2017-06-05T07:43:50.908Z,77.00
2017-06-05T07:46:18.364Z,76.80
2017-06-05T07:48:45.820Z,76.90
2017-06-05T07:51:13.274Z,78.20
2017-06-05T07:53:40.731Z,76.80
2017-06-05T07:56:08.176Z,75.90
2017-06-05T07:58:35.653Z,76.30
2017-06-05T08:01:03.115Z,75.40
2017-06-05T08:03:30.567Z,75.00
2017-06-05T08:05:58.023Z,74.80
2017-06-05T08:08:25.469Z,75.90
2017-06-05T08:10:52.915Z,76.40
2017-06-05T08:13:20.369Z,75.90
2017-06-05T08:15:47.827Z,75.50
2017-06-05T08:18:15.275Z,76.30
2017-06-05T08:20:42.731Z,78.90
2017-06-05T08:23:10.174Z,78.30
2017-06-05T08:25:38.404Z,76.90
2017-06-05T08:28:05.844Z,76.80
2017-06-05T08:30:33.308Z,76.20
2017-06-05T08:33:00.760Z,74.10
2017-06-05T08:35:28.215Z,73.50
2017-06-05T08:37:55.671Z,73.10
2017-06-05T08:40:23.130Z,73.20
2017-06-05T08:42:50.587Z,74.20
2017-06-05T08:45:18.040Z,73.10
2017-06-05T08:47:45.496Z,72.90
2017-06-05T08:50:12.951Z,73.20
2017-06-05T08:52:40.412Z,73.70
2017-06-05T08:55:07.863Z,74.00
2017-06-05T08:57:35.322Z,75.70
2017-06-05T09:00:02.779Z,74.80
2017-06-05T09:02:30.231Z,75.40
2017-06-05T09:04:57.692Z,79.30
2017-06-05T09:07:25.143Z,77.60
2017-06-05T09:09:52.599Z,75.70
2017-06-05T09:12:20.096Z,75.80
2017-06-05T09:14:47.537Z,75.90
2017-06-05T09:17:14.984Z,75.10
2017-06-05T09:19:42.443Z,74.60
2017-06-05T09:22:14.716Z,73.40
2017-06-05T09:24:42.167Z,73.50
2017-06-05T09:27:09.619Z,73.90
2017-06-05T09:29:42.915Z,74.20
2017-06-05T09:32:10.359Z,74.30
2017-06-05T09:34:37.819Z,75.60
2017-06-05T09:37:05.270Z,74.50
2017-06-05T09:39:33.488Z,75.20
2017-06-05T09:42:00.931Z,75.10
2017-06-05T09:44:28.390Z,74.90
2017-06-05T09:46:55.847Z,73.90
2017-06-05T09:49:23.328Z,73.90
2017-06-05T09:51:50.779Z,73.40
2017-06-05T09:54:18.227Z,74.60
2017-06-05T09:56:46.447Z,75.60
2017-06-05T09:59:13.903Z,75.60
2017-06-05T10:01:41.359Z,73.20
2017-06-05T10:04:08.816Z,75.70
2017-06-05T10:06:36.275Z,75.40
2017-06-05T10:09:03.724Z,75.40
2017-06-05T10:11:31.179Z,76.60
2017-06-05T10:13:58.643Z,77.70
2017-06-05T10:16:26.099Z,76.50
2017-06-05T10:18:53.552Z,79.00
2017-06-05T10:21:20.997Z,78.60
2017-06-05T10:23:48.447Z,79.00
2017-06-05T10:26:15.904Z,78.20
2017-06-05T10:28:43.353Z,78.40
2017-06-05T10:31:10.799Z,78.40
2017-06-05T10:33:38.255Z,77.50
2017-06-05T10:36:05.704Z,77.10
2017-06-05T10:38:33.936Z,79.10
2017-06-05T10:41:01.383Z,78.90
2017-06-05T10:43:28.840Z,80.00
2017-06-05T10:45:56.290Z,80.60
2017-06-05T10:48:23.759Z,79.30
2017-06-05T10:50:51.984Z,81.00
2017-06-05T10:53:19.427Z,81.30
2017-06-05T10:55:46.889Z,79.20
2017-06-05T10:58:14.336Z,76.90
2017-06-05T11:00:41.783Z,79.60
2017-06-05T11:03:09.234Z,78.00
2017-06-05T11:05:36.688Z,76.30
2017-06-05T11:08:04.139Z,80.30
2017-06-05T11:10:31.595Z,80.30
2017-06-05T11:12:59.047Z,79.60
2017-06-05T11:15:26.516Z,78.40
2017-06-05T11:17:53.972Z,77.60
2017-06-05T11:20:21.428Z,78.00
2017-06-05T11:22:48.884Z,77.70
2017-06-05T11:25:17.095Z,79.10
2017-06-05T11:27:44.549Z,78.40
2017-06-05T11:30:11.994Z,80.50
2017-06-05T11:32:40.223Z,79.70
2017-06-05T11:35:07.679Z,79.60
2017-06-05T11:37:35.138Z,81.20
2017-06-05T11:40:02.591Z,78.60
2017-06-05T11:42:30.038Z,78.70
2017-06-05T11:44:57.495Z,81.70
2017-06-05T11:47:24.947Z,78.90
2017-06-05T11:49:52.411Z,78.10
2017-06-05T11:52:19.867Z,74.50
2017-06-05T11:54:47.324Z,74.70
2017-06-05T11:57:15.548Z,71.70
2017-06-05T11:59:43.002Z,71.70
2017-06-05T12:02:10.484Z,70.10
2017-06-05T12:04:37.928Z,70.10
2017-06-05T12:07:05.379Z,69.50
2017-06-05T12:09:32.845Z,71.60
2017-06-05T12:12:00.291Z,72.10
2017-06-05T12:14:27.747Z,71.30
2017-06-05T12:16:55.957Z,68.00
2017-06-05T12:19:23.411Z,67.80
2017-06-05T12:21:50.854Z,66.70
2017-06-05T12:24:18.307Z,68.00
2017-06-05T12:26:45.755Z,67.10
2017-06-05T12:29:13.219Z,69.00
2017-06-05T12:31:41.471Z,72.20
2017-06-05T12:34:08.931Z,70.80
2017-06-05T12:36:36.410Z,72.00
2017-06-05T12:39:03.848Z,70.60
2017-06-05T12:41:31.292Z,69.30
2017-06-05T12:43:58.743Z,68.90
2017-06-05T12:46:26.195Z,69.10
2017-06-05T12:48:53.648Z,66.80
2017-06-05T12:51:21.859Z,70.10
2017-06-05T12:53:49.333Z,70.10
2017-06-05T12:56:16.788Z,73.10
2017-06-05T12:58:44.226Z,73.70
2017-06-05T13:01:12.447Z,70.80
2017-06-05T13:03:39.904Z,71.30
2017-06-05T13:06:08.124Z,68.90
2017-06-05T13:08:35.572Z,68.80
2017-06-05T13:11:03.019Z,68.00
2017-06-05T13:13:30.481Z,70.60
2017-06-05T13:15:57.926Z,74.00
2017-06-05T13:18:25.383Z,73.50
2017-06-05T13:20:52.836Z,71.80
2017-06-05T13:23:20.282Z,71.90
2017-06-05T13:25:47.739Z,71.80
2017-06-05T13:28:15.950Z,72.00
2017-06-05T13:30:43.407Z,71.30
2017-06-05T13:33:10.842Z,71.70
2017-06-05T13:35:39.088Z,70.00
2017-06-05T13:38:06.547Z,69.20
2017-06-05T13:40:34.007Z,70.90
2017-06-05T13:43:02.227Z,71.80
2017-06-05T13:45:29.688Z,71.80
2017-06-05T13:47:57.138Z,70.80
2017-06-05T13:50:24.583Z,73.20
2017-06-05T13:52:52.035Z,76.00
2017-06-05T13:55:20.248Z,74.40
2017-06-05T13:57:47.703Z,74.40
2017-06-05T14:00:15.148Z,72.10
2017-06-05T14:02:42.606Z,69.70
2017-06-05T14:05:10.045Z,70.90
2017-06-05T14:07:37.496Z,68.90
2017-06-05T14:10:04.959Z,72.80
2017-06-05T14:12:33.778Z,74.30
2017-06-05T14:15:01.222Z,71.20
2017-06-05T14:17:28.695Z,71.80
2017-06-05T14:19:56.911Z,73.50
2017-06-05T14:22:24.359Z,73.50
2017-06-05T14:24:51.815Z,74.30
2017-06-05T14:27:19.271Z,72.30
2017-06-05T14:29:46.728Z,73.60
2017-06-05T14:32:14.204Z,73.50
2017-06-05T14:34:41.664Z,74.30
2017-06-05T14:37:09.879Z,73.90
2017-06-05T14:39:37.342Z,73.90
2017-06-05T14:42:04.795Z,73.80
2017-06-05T14:44:32.255Z,75.70
2017-06-05T14:46:59.686Z,75.00
2017-06-05T14:49:27.135Z,75.10
2017-06-05T14:51:54.580Z,72.60
2017-06-05T14:54:22.035Z,75.10
2017-06-05T14:56:49.479Z,73.00
2017-06-05T14:59:17.020Z,72.80
2017-06-05T15:01:45.239Z,73.30
2017-06-05T15:04:12.691Z,73.20
2017-06-05T15:06:40.146Z,73.30
2017-06-05T15:09:07.602Z,73.30
2017-06-05T15:11:35.059Z,72.10
2017-06-05T15:14:02.511Z,70.70
2017-06-05T15:16:29.966Z,69.30
2017-06-05T15:18:57.419Z,69.80
2017-06-05T15:21:25.024Z,70.00
2017-06-05T15:23:52.637Z,69.00
2017-06-05T15:26:20.082Z,68.10
2017-06-05T15:28:47.521Z,70.00
2017-06-05T15:31:15.739Z,74.40
2017-06-05T15:33:43.195Z,74.40
2017-06-05T15:36:10.651Z,71.70
2017-06-05T15:38:38.095Z,69.70
2017-06-05T15:41:05.568Z,68.30
2017-06-05T15:43:33.023Z,65.50
2017-06-05T15:46:00.463Z,63.40
2017-06-05T15:48:27.926Z,68.90
2017-06-05T15:50:55.382Z,66.00
2017-06-05T15:53:22.823Z,67.40
2017-06-05T15:55:50.264Z,64.30
2017-06-05T15:58:18.480Z,66.60
2017-06-05T16:00:45.935Z,66.50
2017-06-05T16:03:13.387Z,64.60
2017-06-05T16:05:40.831Z,66.50
2017-06-05T16:08:08.275Z,67.10
2017-06-05T16:10:35.731Z,67.20
2017-06-05T16:13:03.185Z,69.00
2017-06-05T16:15:30.626Z,68.00
2017-06-05T16:17:58.075Z,67.70
2017-06-05T16:20:26.284Z,67.60
2017-06-05T16:22:53.754Z,67.60
2017-06-05T16:25:21.203Z,66.40
2017-06-05T16:27:48.644Z,66.40
2017-06-05T16:30:16.093Z,67.50
2017-06-05T16:32:43.535Z,68.50
2017-06-05T16:35:11.751Z,70.40
2017-06-05T16:37:39.206Z,70.40
2017-06-05T16:40:06.662Z,70.00
2017-06-05T16:42:34.123Z,70.10
2017-06-05T16:45:01.601Z,69.20
2017-06-05T16:47:29.035Z,68.60
2017-06-05T16:49:56.491Z,69.40
2017-06-05T16:52:23.939Z,68.90
2017-06-05T16:54:51.379Z,70.60
2017-06-05T16:57:18.819Z,71.50
2017-06-05T16:59:47.070Z,72.50
2017-06-05T17:02:15.284Z,73.30
2017-06-05T17:04:42.728Z,72.60
2017-06-05T17:07:10.175Z,71.80
2017-06-05T17:09:37.615Z,72.30
2017-06-05T17:12:05.834Z,72.90
2017-06-05T17:14:33.315Z,72.80
2017-06-05T17:17:00.775Z,73.70
2017-06-05T17:19:28.233Z,73.60
2017-06-05T17:21:55.683Z,73.60
2017-06-05T17:24:23.139Z,74.00
2017-06-05T17:26:50.595Z,74.10
2017-06-05T17:29:18.035Z,73.80
2017-06-05T17:31:45.483Z,74.20
2017-06-05T17:34:13.695Z,74.40
2017-06-05T17:36:41.143Z,74.40
2017-06-05T17:39:08.602Z,75.20
2017-06-05T17:41:36.055Z,74.90
2017-06-05T17:44:03.503Z,75.40
2017-06-05T17:46:30.979Z,75.00
2017-06-05T17:48:58.418Z,74.60
2017-06-05T17:51:26.639Z,76.80
2017-06-05T17:53:54.118Z,76.70
2017-06-05T17:56:21.564Z,77.70
2017-06-05T17:58:49.019Z,77.50
2017-06-05T18:01:16.465Z,77.80
2017-06-05T18:03:43.916Z,78.40
2017-06-05T18:06:11.358Z,78.90
2017-06-05T18:08:38.811Z,78.80
2017-06-05T18:11:06.247Z,79.30
2017-06-05T18:13:33.707Z,79.10
2017-06-05T18:16:01.147Z,79.40
2017-06-05T18:18:28.603Z,79.10
2017-06-05T18:20:56.059Z,79.40
2017-06-05T18:23:23.535Z,79.30
2017-06-05T18:25:50.987Z,79.70
2017-06-05T18:28:18.431Z,80.30
2017-06-05T18:30:45.880Z,80.30
2017-06-05T18:33:13.322Z,80.40
2017-06-05T18:35:40.775Z,80.30
2017-06-05T18:38:08.218Z,80.40
2017-06-05T18:40:36.439Z,80.80
2017-06-05T18:43:03.891Z,80.80
2017-06-05T18:45:31.352Z,80.90
2017-06-05T18:47:58.787Z,80.90
2017-06-05T18:50:26.244Z,81.00
2017-06-05T18:52:53.697Z,81.50
2017-06-05T18:55:21.169Z,81.70
2017-06-05T18:57:49.379Z,82.20
2017-06-05T19:00:16.823Z,82.10
2017-06-05T19:02:44.289Z,82.20
2017-06-05T19:05:12.495Z,82.20
2017-06-05T19:07:40.789Z,82.20
2017-06-05T19:10:08.235Z,83.00
2017-06-05T19:12:35.678Z,83.30
2017-06-05T19:15:03.132Z,83.90
2017-06-05T19:17:30.579Z,84.00
2017-06-05T19:19:58.051Z,83.10
2017-06-05T19:22:25.505Z,82.90
2017-06-05T19:24:52.947Z,82.90
2017-06-05T19:27:20.399Z,82.80
2017-06-05T19:29:47.850Z,82.80
2017-06-05T19:32:15.296Z,82.80
2017-06-05T19:34:42.747Z,82.90
2017-06-05T19:37:10.203Z,83.10
2017-06-05T19:39:37.659Z,83.10
2017-06-05T19:42:05.109Z,83.30
2017-06-05T19:44:32.566Z,83.40
2017-06-05T19:46:59.994Z,83.30
2017-06-05T19:49:27.447Z,83.90
2017-06-05T19:51:55.868Z,85.10
2017-06-05T19:54:23.319Z,85.10
2017-06-05T19:56:50.755Z,85.50
2017-06-05T19:59:18.203Z,86.00
2017-06-05T20:01:45.651Z,86.50
2017-06-05T20:04:13.864Z,86.80
2017-06-05T20:06:41.318Z,86.80
2017-06-05T20:09:08.775Z,87.00
2017-06-05T20:11:36.255Z,87.40
2017-06-05T20:14:03.683Z,88.10
2017-06-05T20:16:31.171Z,89.60
2017-06-05T20:18:58.643Z,89.60
2017-06-05T20:21:26.084Z,89.50
2017-06-05T20:23:54.303Z,89.60
2017-06-05T20:26:21.760Z,89.60
2017-06-05T20:28:49.218Z,89.60
2017-06-05T20:31:16.697Z,89.70
2017-06-05T20:33:44.144Z,90.30
2017-06-05T20:36:12.503Z,90.30
2017-06-05T20:38:39.946Z,90.30
2017-06-05T20:41:07.395Z,90.30
2017-06-05T20:43:34.839Z,90.30
2017-06-05T20:46:03.064Z,90.50
2017-06-05T20:48:30.503Z,90.50
2017-06-05T20:50:57.958Z,90.90
2017-06-05T20:53:25.403Z,91.00
2017-06-05T20:55:52.851Z,91.00
2017-06-05T20:58:20.295Z,90.90
2017-06-05T21:00:47.748Z,90.80
2017-06-05T21:03:15.959Z,91.60
2017-06-05T21:05:43.416Z,91.60
2017-06-05T21:08:10.863Z,91.80
2017-06-05T21:10:38.313Z,91.70
2017-06-05T21:13:05.756Z,91.50
2017-06-05T21:15:33.215Z,91.40
2017-06-05T21:18:01.566Z,91.50
2017-06-05T21:20:29.011Z,91.50
2017-06-05T21:22:56.466Z,91.90
2017-06-05T21:25:23.913Z,91.80
2017-06-05T21:27:51.360Z,91.90
2017-06-05T21:30:18.799Z,91.90
2017-06-05T21:32:47.024Z,91.90
2017-06-05T21:35:14.468Z,91.80
2017-06-05T21:37:41.923Z,91.60
2017-06-05T21:40:09.378Z,91.90
2017-06-05T21:42:36.847Z,91.80
2017-06-05T21:45:04.293Z,91.90
2017-06-05T21:47:31.739Z,91.90
2017-06-05T21:49:59.179Z,91.90
2017-06-05T21:52:26.622Z,92.00
2017-06-05T21:54:54.835Z,92.40
2017-06-05T21:57:22.290Z,92.30
2017-06-05T21:59:49.732Z,92.90
2017-06-05T22:02:17.212Z,92.80
2017-06-05T22:04:44.674Z,92.90
2017-06-05T22:07:12.123Z,93.00
2017-06-05T22:09:39.574Z,92.80
2017-06-05T22:12:07.013Z,92.60
2017-06-05T22:14:34.459Z,92.40
2017-06-05T22:17:02.463Z,92.40
2017-06-05T22:19:29.907Z,92.40
2017-06-05T22:21:57.349Z,92.50
2017-06-05T22:24:24.795Z,92.70
2017-06-05T22:26:52.233Z,92.60
2017-06-05T22:29:19.695Z,92.70
2017-06-05T22:31:47.903Z,93.30
2017-06-05T22:34:15.359Z,93.30
2017-06-05T22:36:42.810Z,93.70
2017-06-05T22:39:10.251Z,93.20
2017-06-05T22:41:37.695Z,93.20
2017-06-05T22:44:05.151Z,93.20
2017-06-05T22:46:32.590Z,93.40
2017-06-05T22:49:00.035Z,93.40
2017-06-05T22:51:27.479Z,93.50
2017-06-05T22:53:54.959Z,93.80
2017-06-05T22:56:22.403Z,93.90
2017-06-05T22:58:49.843Z,94.10
2017-06-05T23:01:18.070Z,93.80
2017-06-05T23:03:45.520Z,93.80
2017-06-05T23:06:12.974Z,94.10
2017-06-05T23:08:40.425Z,94.00
2017-06-05T23:11:07.866Z,94.00
2017-06-05T23:13:35.311Z,94.00
2017-06-05T23:16:02.759Z,94.00
2017-06-05T23:18:30.217Z,93.90
2017-06-05T23:20:58.428Z,94.00
2017-06-05T23:23:25.872Z,94.00
2017-06-05T23:25:53.319Z,94.10
2017-06-05T23:28:20.762Z,94.10
2017-06-05T23:30:48.204Z,94.00
2017-06-05T23:33:15.653Z,94.00
2017-06-05T23:35:43.864Z,94.00
2017-06-05T23:38:11.319Z,94.00
2017-06-05T23:40:38.771Z,94.20
2017-06-05T23:43:06.239Z,94.30
2017-06-05T23:45:33.688Z,94.10
2017-06-05T23:48:01.144Z,94.40
2017-06-05T23:50:28.592Z,94.50
2017-06-05T23:52:56.048Z,94.60
2017-06-05T23:55:23.487Z,94.60
2017-06-05T23:57:50.919Z,94.70
